Time;durP1;ratioP1;P1;durP2;ratioP2;P2;SDS_P1;SDS_P2;PMS_P1;PMS_P2;Temp;Humidity;BMP_temperature;BMP_pressure;BME280_temperature;BME280_humidity;BME280_pressure;Samples;Min_cycle;Max_cycle;Signal;HPM_P1;HPM_P2
2024/01/18 00:02:28;;;;;;;;;;;;;;;4.25;85.93;97580.09;4446614;32;33403;-92
2024/01/18 00:05:18;;;;;;;;;;;;;;;4.79;83.22;97576.31;4451819;32;32279;-91
2024/01/18 00:08:13;;;;;;;;;;;;;;;4.55;83.98;97578.56;4451667;32;34785;-92
2024/01/18 00:10:44;;;;;;;;;;;;;;;3.79;89.48;97581.03;4457774;32;33804;-92
2024/01/18 00:13:32;;;;;;;;;;;;;;;3.54;91.53;97573.84;4455591;32;34260;-92
2024/01/18 00:16:08;;;;;;;;;;;;;;;3.39;92.55;97579.25;4452334;32;33604;-91
2024/01/18 00:18:39;;;;;;;;;;;;;;;3.88;91.21;97569.75;4447732;32;33039;-92
2024/01/18 00:21:31;;;;;;;;;;;;;;;3.75;87.79;97571.75;4439201;32;33736;-92
2024/01/18 00:24:40;;;;;;;;;;;;;;;4.52;84.36;97567.50;4446831;32;34217;-91
2024/01/18 00:27:13;;;;;;;;;;;;;;;4.28;85.61;97565.47;4443720;32;32674;-92
2024/01/18 00:30:02;;;;;;;;;;;;;;;4.66;83.50;97556.06;4446186;32;34670;-91
2024/01/18 00:32:38;;;;;;;;;;;;;;;4.70;84.02;97554.25;4431792;32;33201;-90
2024/01/18 00:35:07;;;;;;;;;;;;;;;4.61;84.60;97559.59;4439834;32;33421;-91
2024/01/18 00:37:46;;;;;;;;;;;;;;;4.64;86.09;97552.69;4448385;32;32834;-91
2024/01/18 00:40:44;;;;;;;;;;;;;;;4.01;88.75;97550.66;4418002;32;33278;-90
2024/01/18 00:44:20;;;;;;;;;;;;;;;4.14;88.26;97554.66;4439470;32;33136;-93
2024/01/18 00:47:18;;;;;;;;;;;;;;;4.31;87.64;97562.00;4443635;32;33336;-93
2024/01/18 00:50:49;;;;;;;;;;;;;;;4.17;87.60;97557.16;4442709;32;32637;-93
2024/01/18 00:53:38;;;;;;;;;;;;;;;4.59;84.40;97554.50;4444690;32;33704;-92
2024/01/18 00:56:49;;;;;;;;;;;;;;;4.18;88.60;97548.59;4441602;32;34292;-92
2024/01/18 00:59:59;;;;;;;;;;;;;;;4.47;88.45;97549.66;4437499;32;35216;-93
2024/01/18 01:02:52;;;;;;;;;;;;;;;4.66;86.34;97550.91;4440133;32;31992;-92
2024/01/18 01:06:01;;;;;;;;;;;;;;;4.32;89.06;97538.00;4441634;32;34088;-93
2024/01/18 01:08:55;;;;;;;;;;;;;;;4.26;87.96;97528.72;4441462;32;34240;-91
2024/01/18 01:12:32;;;;;;;;;;;;;;;4.24;90.17;97522.78;4444275;32;34006;-92
2024/01/18 01:15:07;;;;;;;;;;;;;;;4.59;88.06;97518.56;4441029;32;33271;-93
2024/01/18 01:18:20;;;;;;;;;;;;;;;4.59;88.95;97507.41;4431338;32;32635;-92
2024/01/18 01:21:09;;;;;;;;;;;;;;;5.04;85.56;97513.12;4435212;32;33313;-91
2024/01/18 01:23:48;;;;;;;;;;;;;;;5.01;84.46;97522.66;4441579;32;33877;-93
2024/01/18 01:26:20;;;;;;;;;;;;;;;5.23;83.57;97517.81;4436594;32;33446;-93
2024/01/18 01:29:12;;;;;;;;;;;;;;;5.17;83.57;97503.41;4445350;32;33202;-91
2024/01/18 01:32:05;;;;;;;;;;;;;;;5.42;82.42;97495.84;4431358;32;34083;-92
2024/01/18 01:34:34;;;;;;;;;;;;;;;5.13;84.59;97494.91;4435051;32;33967;-92
2024/01/18 01:37:22;;;;;;;;;;;;;;;5.08;84.26;97483.91;4430653;32;32192;-91
2024/01/18 01:39:57;;;;;;;;;;;;;;;4.99;84.90;97486.72;4430953;32;34387;-91
2024/01/18 01:42:43;;;;;;;;;;;;;;;4.81;84.75;97482.91;4443225;32;33955;-91
2024/01/18 01:45:38;;;;;;;;;;;;;;;4.96;85.72;97485.97;4452066;32;34480;-91
2024/01/18 01:48:08;;;;;;;;;;;;;;;4.99;85.74;97475.59;4435270;32;33151;-91
2024/01/18 01:50:41;;;;;;;;;;;;;;;4.51;88.10;97468.25;4434491;32;32617;-92
2024/01/18 01:53:11;;;;;;;;;;;;;;;4.73;88.65;97460.88;4441974;32;33141;-91
2024/01/18 01:55:44;;;;;;;;;;;;;;;4.83;87.80;97452.03;4439581;32;33193;-91
2024/01/18 01:58:14;;;;;;;;;;;;;;;5.48;84.48;97451.94;4436495;32;32734;-90
2024/01/18 02:00:52;;;;;;;;;;;;;;;5.10;85.46;97453.88;4436734;32;32787;-91
2024/01/18 02:03:25;;;;;;;;;;;;;;;4.92;86.95;97444.91;4446524;32;35005;-91
2024/01/18 02:05:53;;;;;;;;;;;;;;;5.18;86.61;97445.13;4442957;32;34708;-90
2024/01/18 02:08:25;;;;;;;;;;;;;;;5.53;83.44;97447.53;4432175;32;33403;-90
2024/01/18 02:10:54;;;;;;;;;;;;;;;5.47;84.12;97442.56;4435746;32;34152;-90
2024/01/18 02:13:28;;;;;;;;;;;;;;;5.53;83.88;97434.69;4433099;32;33411;-90
2024/01/18 02:15:59;;;;;;;;;;;;;;;5.11;86.37;97429.00;4441367;32;34433;-90
2024/01/18 02:18:27;;;;;;;;;;;;;;;5.14;85.82;97428.91;4432130;32;34964;-89
2024/01/18 02:20:56;;;;;;;;;;;;;;;5.42;86.09;97412.72;4440016;32;34431;-89
2024/01/18 02:23:26;;;;;;;;;;;;;;;4.98;88.61;97422.50;4435396;32;34692;-89
2024/01/18 02:25:59;;;;;;;;;;;;;;;5.17;86.48;97421.16;4432873;32;33125;-89
2024/01/18 02:28:32;;;;;;;;;;;;;;;5.46;85.80;97406.59;4437050;32;33830;-88
2024/01/18 02:31:01;;;;;;;;;;;;;;;5.63;84.22;97406.09;4443506;32;33396;-89
2024/01/18 02:33:32;;;;;;;;;;;;;;;5.83;82.80;97403.78;4436775;32;34284;-88
2024/01/18 02:36:01;;;;;;;;;;;;;;;5.95;81.22;97402.59;4432100;32;33631;-89
2024/01/18 02:38:35;;;;;;;;;;;;;;;5.98;80.90;97402.47;4431903;32;33105;-88
2024/01/18 02:41:05;;;;;;;;;;;;;;;5.85;80.99;97391.72;4431948;32;34065;-88
2024/01/18 02:43:34;;;;;;;;;;;;;;;5.94;80.30;97398.31;4436534;32;33397;-89
2024/01/18 02:46:03;;;;;;;;;;;;;;;5.98;80.03;97376.75;4434848;32;34727;-88
2024/01/18 02:48:38;;;;;;;;;;;;;;;6.12;79.90;97386.59;4431606;32;33284;-88
2024/01/18 02:51:06;;;;;;;;;;;;;;;6.13;80.17;97383.12;4431821;32;34355;-89
2024/01/18 02:53:42;;;;;;;;;;;;;;;5.92;80.87;97394.91;4434749;32;35263;-89
2024/01/18 02:56:12;;;;;;;;;;;;;;;5.71;81.78;97404.16;4451855;32;33877;-89
2024/01/18 02:58:46;;;;;;;;;;;;;;;5.71;83.09;97389.56;4447036;32;33536;-88
2024/01/18 03:01:14;;;;;;;;;;;;;;;6.05;81.95;97388.53;4448258;32;34114;-89
2024/01/18 03:03:49;;;;;;;;;;;;;;;6.11;81.49;97385.78;4436532;32;34766;-88
2024/01/18 03:06:18;;;;;;;;;;;;;;;6.13;81.12;97375.41;4431423;32;33998;-88
2024/01/18 03:08:49;;;;;;;;;;;;;;;6.29;79.71;97386.87;4436178;32;34333;-88
2024/01/18 03:11:19;;;;;;;;;;;;;;;6.19;79.17;97386.34;4430974;32;33449;-88
2024/01/18 03:13:51;;;;;;;;;;;;;;;6.28;79.62;97392.94;4435948;32;34776;-88
2024/01/18 03:16:23;;;;;;;;;;;;;;;5.98;81.06;97387.03;4431565;32;33708;-88
2024/01/18 03:18:55;;;;;;;;;;;;;;;6.12;80.66;97387.44;4437977;32;33838;-87
2024/01/18 03:21:26;;;;;;;;;;;;;;;6.12;81.64;97381.47;4435336;32;33933;-87
2024/01/18 03:23:55;;;;;;;;;;;;;;;6.36;80.04;97380.66;4435619;32;33784;-88
2024/01/18 03:26:29;;;;;;;;;;;;;;;6.40;80.22;97395.13;4433285;32;34318;-88
2024/01/18 03:28:58;;;;;;;;;;;;;;;6.17;80.79;97380.41;4440910;32;34052;-87
2024/01/18 03:31:27;;;;;;;;;;;;;;;6.34;81.16;97386.75;4443229;32;32597;-87
2024/01/18 03:33:56;;;;;;;;;;;;;;;6.39;80.56;97372.81;4442587;32;32647;-87
2024/01/18 03:36:33;;;;;;;;;;;;;;;6.39;80.97;97372.81;4440702;32;34625;-88
2024/01/18 03:39:01;;;;;;;;;;;;;;;6.32;81.70;97375.66;4432876;32;33987;-87
2024/01/18 03:41:32;;;;;;;;;;;;;;;6.54;80.30;97371.44;4435091;32;34547;-88
2024/01/18 03:44:01;;;;;;;;;;;;;;;6.48;80.18;97376.81;4438330;32;34951;-87
2024/01/18 03:46:30;;;;;;;;;;;;;;;6.57;80.16;97371.37;4433252;32;33216;-87
2024/01/18 03:49:03;;;;;;;;;;;;;;;6.48;80.51;97365.69;4432818;32;32881;-87
2024/01/18 03:51:40;;;;;;;;;;;;;;;6.65;80.14;97373.66;4434927;32;33470;-87
2024/01/18 03:54:10;;;;;;;;;;;;;;;6.48;81.47;97373.41;4437631;32;33329;-87
2024/01/18 03:56:48;;;;;;;;;;;;;;;6.13;82.95;97385.69;4436530;32;33960;-87
2024/01/18 03:59:23;;;;;;;;;;;;;;;6.53;81.54;97372.34;4432757;32;33840;-87
2024/01/18 04:01:52;;;;;;;;;;;;;;;6.30;83.03;97370.53;4434734;32;33993;-87
2024/01/18 04:04:22;;;;;;;;;;;;;;;6.50;81.97;97369.03;4441928;32;34656;-86
2024/01/18 04:06:51;;;;;;;;;;;;;;;6.66;81.78;97371.94;4437920;32;33623;-87
2024/01/18 04:09:20;;;;;;;;;;;;;;;6.64;81.06;97366.81;4441290;32;33827;-87
2024/01/18 04:11:51;;;;;;;;;;;;;;;6.65;81.72;97353.06;4433563;32;34672;-87
2024/01/18 04:14:21;;;;;;;;;;;;;;;6.80;80.42;97346.53;4439130;32;34417;-87
2024/01/18 04:16:53;;;;;;;;;;;;;;;6.80;80.22;97347.34;4439247;32;33645;-88
2024/01/18 04:19:22;;;;;;;;;;;;;;;6.78;80.74;97348.31;4439652;32;32946;-86
2024/01/18 04:21:52;;;;;;;;;;;;;;;6.92;80.06;97340.91;4432914;32;33330;-86
2024/01/18 04:24:23;;;;;;;;;;;;;;;6.87;80.17;97342.00;4454797;32;33854;-86
2024/01/18 04:26:53;;;;;;;;;;;;;;;6.88;80.17;97341.09;4436074;32;34621;-87
2024/01/18 04:29:27;;;;;;;;;;;;;;;6.80;80.79;97337.03;4467063;32;32525;-87
2024/01/18 04:31:55;;;;;;;;;;;;;;;6.82;80.83;97330.09;4449505;32;34529;-87
2024/01/18 04:34:25;;;;;;;;;;;;;;;6.60;81.51;97329.19;4450156;32;34673;-86
2024/01/18 04:36:56;;;;;;;;;;;;;;;6.74;81.05;97329.56;4449336;32;33256;-86
2024/01/18 04:39:26;;;;;;;;;;;;;;;6.77;81.41;97326.84;4448713;32;32690;-87
2024/01/18 04:42:01;;;;;;;;;;;;;;;6.82;81.07;97318.97;4456209;32;34351;-86
2024/01/18 04:44:30;;;;;;;;;;;;;;;6.81;80.99;97318.13;4449297;32;36107;-86
2024/01/18 04:47:02;;;;;;;;;;;;;;;6.71;81.87;97327.06;4451142;32;33568;-86
2024/01/18 04:49:35;;;;;;;;;;;;;;;6.84;80.66;97320.59;4448194;32;33104;-85
2024/01/18 04:52:06;;;;;;;;;;;;;;;6.78;81.27;97325.94;4454214;32;33626;-86
2024/01/18 04:54:35;;;;;;;;;;;;;;;6.86;80.47;97319.69;4453491;32;33797;-86
2024/01/18 04:57:06;;;;;;;;;;;;;;;6.93;80.85;97323.72;4448737;32;33348;-86
2024/01/18 04:59:36;;;;;;;;;;;;;;;6.92;80.96;97322.03;4451037;32;32929;-85
2024/01/18 05:02:06;;;;;;;;;;;;;;;6.94;80.33;97325.41;4450032;32;33722;-86
2024/01/18 05:04:36;;;;;;;;;;;;;;;6.91;80.39;97323.78;4452844;32;34750;-85
2024/01/18 05:07:06;;;;;;;;;;;;;;;7.04;80.07;97322.44;4450291;32;33832;-86
2024/01/18 05:09:36;;;;;;;;;;;;;;;7.02;80.00;97318.22;4462676;32;33285;-86
2024/01/18 05:12:09;;;;;;;;;;;;;;;7.09;79.75;97321.44;4460927;32;32449;-86
2024/01/18 05:14:41;;;;;;;;;;;;;;;6.78;81.04;97318.22;4459187;32;34275;-85
2024/01/18 05:17:13;;;;;;;;;;;;;;;6.84;80.97;97309.44;4457777;32;33185;-85
2024/01/18 05:19:44;;;;;;;;;;;;;;;6.71;81.03;97310.78;4452276;32;32717;-84
2024/01/18 05:22:13;;;;;;;;;;;;;;;6.74;82.09;97313.22;4448802;32;34203;-86
2024/01/18 05:24:42;;;;;;;;;;;;;;;6.96;81.01;97326.16;4454255;32;33626;-85
2024/01/18 05:27:13;;;;;;;;;;;;;;;7.21;78.76;97329.53;4452940;32;35422;-84
2024/01/18 05:29:47;;;;;;;;;;;;;;;6.76;81.18;97316.59;4463205;32;33415;-85
2024/01/18 05:32:16;;;;;;;;;;;;;;;6.88;80.43;97317.87;4465702;32;33528;-85
2024/01/18 05:34:47;;;;;;;;;;;;;;;7.03;79.48;97318.19;4464801;32;35633;-85
2024/01/18 05:37:16;;;;;;;;;;;;;;;6.73;81.62;97316.72;4464792;32;34704;-84
2024/01/18 05:39:47;;;;;;;;;;;;;;;6.86;80.80;97310.19;4466841;32;34178;-84
2024/01/18 05:42:18;;;;;;;;;;;;;;;6.75;81.43;97313.19;4448647;32;33650;-84
2024/01/18 05:44:50;;;;;;;;;;;;;;;6.72;81.42;97315.03;4450381;32;35154;-84
2024/01/18 05:47:20;;;;;;;;;;;;;;;6.89;79.78;97314.44;4460595;32;33828;-84
2024/01/18 05:49:52;;;;;;;;;;;;;;;6.84;80.67;97312.84;4466159;32;33772;-85
2024/01/18 05:52:21;;;;;;;;;;;;;;;6.97;79.81;97313.25;4443816;32;33005;-85
2024/01/18 05:54:52;;;;;;;;;;;;;;;6.83;80.12;97312.91;4464643;32;35105;-85
2024/01/18 05:57:24;;;;;;;;;;;;;;;6.83;80.56;97308.56;4463435;32;33687;-86
2024/01/18 05:59:55;;;;;;;;;;;;;;;6.99;80.04;97316.59;4463485;32;34056;-86
2024/01/18 06:02:24;;;;;;;;;;;;;;;7.08;79.17;97315.44;4452763;32;34227;-85
2024/01/18 06:04:56;;;;;;;;;;;;;;;7.01;79.86;97316.56;4448498;32;33395;-85
2024/01/18 06:07:26;;;;;;;;;;;;;;;7.02;79.32;97319.06;4447760;32;33638;-85
2024/01/18 06:09:59;;;;;;;;;;;;;;;6.97;79.50;97317.56;4447375;32;33052;-85
2024/01/18 06:12:29;;;;;;;;;;;;;;;7.00;79.30;97322.59;4452066;32;34424;-84
2024/01/18 06:15:06;;;;;;;;;;;;;;;6.96;79.26;97306.41;4452074;32;33883;-85
2024/01/18 06:17:36;;;;;;;;;;;;;;;7.09;78.83;97316.28;4447682;32;34421;-84
2024/01/18 06:20:08;;;;;;;;;;;;;;;7.15;78.47;97319.47;4447487;32;33815;-84
2024/01/18 06:22:42;;;;;;;;;;;;;;;7.14;78.20;97322.91;4451012;32;33593;-84
2024/01/18 06:25:11;;;;;;;;;;;;;;;7.15;78.18;97316.03;4452050;32;35084;-84
2024/01/18 06:27:43;;;;;;;;;;;;;;;6.98;79.15;97314.94;4447742;32;33856;-84
2024/01/18 06:30:13;;;;;;;;;;;;;;;7.05;78.54;97321.53;4447652;32;33859;-85
2024/01/18 06:32:41;;;;;;;;;;;;;;;6.69;80.09;97318.53;4459758;32;33979;-85
2024/01/18 06:35:11;;;;;;;;;;;;;;;6.97;79.10;97326.13;4450745;32;33969;-84
2024/01/18 06:37:40;;;;;;;;;;;;;;;6.92;79.25;97329.78;4462336;32;34082;-85
2024/01/18 06:40:13;;;;;;;;;;;;;;;6.86;79.60;97335.97;4458980;32;33012;-84
2024/01/18 06:42:51;;;;;;;;;;;;;;;7.04;78.56;97337.06;4455771;32;34115;-84
2024/01/18 06:45:20;;;;;;;;;;;;;;;7.06;78.67;97337.84;4453761;32;33928;-85
2024/01/18 06:47:48;;;;;;;;;;;;;;;7.03;78.53;97330.19;4455018;32;34108;-84
2024/01/18 06:50:17;;;;;;;;;;;;;;;7.03;78.57;97333.66;4451580;32;32924;-85
2024/01/18 06:52:47;;;;;;;;;;;;;;;7.00;78.76;97333.75;4448347;32;34687;-85
2024/01/18 06:55:17;;;;;;;;;;;;;;;7.11;77.41;97335.94;4455517;32;33880;-84
2024/01/18 06:57:49;;;;;;;;;;;;;;;6.97;78.34;97325.28;4457326;32;33187;-85
2024/01/18 07:00:19;;;;;;;;;;;;;;;7.09;77.58;97331.75;4457750;32;33879;-84
2024/01/18 07:02:48;;;;;;;;;;;;;;;7.19;76.89;97336.47;4447396;32;33218;-85
2024/01/18 07:05:18;;;;;;;;;;;;;;;6.94;78.16;97335.72;4447863;32;34251;-84
2024/01/18 07:07:47;;;;;;;;;;;;;;;6.91;78.68;97328.06;4458230;32;34702;-85
2024/01/18 07:10:18;;;;;;;;;;;;;;;6.90;78.57;97322.09;4456080;32;33456;-83
2024/01/18 07:12:51;;;;;;;;;;;;;;;6.90;78.74;97314.34;4447586;32;34600;-85
2024/01/18 07:15:25;;;;;;;;;;;;;;;7.00;78.41;97325.16;4455303;32;35189;-84
2024/01/18 07:17:55;;;;;;;;;;;;;;;6.95;78.32;97320.19;4451731;32;33723;-83
2024/01/18 07:20:23;;;;;;;;;;;;;;;6.86;78.95;97325.66;4448541;32;32531;-83
2024/01/18 07:22:53;;;;;;;;;;;;;;;6.90;78.84;97324.66;4442816;32;33667;-83
2024/01/18 07:25:25;;;;;;;;;;;;;;;6.97;78.43;97322.72;4437153;32;32714;-84
2024/01/18 07:27:56;;;;;;;;;;;;;;;7.01;78.76;97329.44;4430737;32;33991;-84
2024/01/18 07:30:27;;;;;;;;;;;;;;;7.03;78.43;97332.78;4431113;32;32944;-83
2024/01/18 07:32:55;;;;;;;;;;;;;;;7.20;77.58;97337.31;4435596;32;33905;-83
2024/01/18 07:35:31;;;;;;;;;;;;;;;7.04;78.12;97335.31;4604489;26;34714;-85
2024/01/18 07:38:00;;;;;;;;;;;;;;;7.02;78.48;97337.09;4445909;32;32590;-86
2024/01/18 07:40:29;;;;;;;;;;;;;;;7.07;78.23;97344.69;4445537;32;33258;-86
2024/01/18 07:42:59;;;;;;;;;;;;;;;7.08;78.64;97345.50;4447089;32;33397;-86
2024/01/18 07:45:32;;;;;;;;;;;;;;;7.28;77.62;97349.94;4450782;32;33918;-86
2024/01/18 07:48:01;;;;;;;;;;;;;;;7.24;77.97;97357.78;4446655;32;34295;-85
2024/01/18 07:50:32;;;;;;;;;;;;;;;7.14;78.42;97353.88;4445904;32;32755;-86
2024/01/18 07:53:10;;;;;;;;;;;;;;;7.17;77.92;97358.91;4445364;32;32956;-87
2024/01/18 07:55:39;;;;;;;;;;;;;;;7.08;79.00;97360.97;4444791;32;33906;-86
2024/01/18 07:58:10;;;;;;;;;;;;;;;7.28;77.68;97360.25;4449264;32;34047;-86
2024/01/18 08:00:38;;;;;;;;;;;;;;;7.14;78.29;97359.03;4444910;32;34103;-86
2024/01/18 08:03:10;;;;;;;;;;;;;;;7.12;78.88;97365.97;4445693;32;33518;-87
2024/01/18 08:05:39;;;;;;;;;;;;;;;7.30;77.75;97371.34;4448013;32;34757;-87
2024/01/18 08:08:08;;;;;;;;;;;;;;;7.11;78.60;97356.56;4453259;32;35156;-86
2024/01/18 08:10:38;;;;;;;;;;;;;;;7.11;78.92;97366.88;4447881;32;32992;-86
2024/01/18 08:13:14;;;;;;;;;;;;;;;7.12;78.97;97370.28;4449722;32;34617;-87
2024/01/18 08:15:44;;;;;;;;;;;;;;;7.17;78.97;97371.78;4446412;32;34617;-86
2024/01/18 08:18:13;;;;;;;;;;;;;;;7.13;79.31;97359.94;4446186;32;34398;-87
2024/01/18 08:20:43;;;;;;;;;;;;;;;7.21;79.04;97362.22;4452224;32;33344;-86
2024/01/18 08:23:17;;;;;;;;;;;;;;;7.28;79.08;97353.38;4446971;32;34926;-87
2024/01/18 08:25:46;;;;;;;;;;;;;;;7.39;78.54;97355.53;4448918;32;32613;-87
2024/01/18 08:28:15;;;;;;;;;;;;;;;7.42;79.01;97361.41;4446897;32;33908;-86
2024/01/18 08:30:50;;;;;;;;;;;;;;;7.51;78.66;97362.78;4452726;32;33016;-88
2024/01/18 08:33:23;;;;;;;;;;;;;;;7.50;79.04;97357.72;4452477;32;33531;-86
2024/01/18 08:35:52;;;;;;;;;;;;;;;7.49;79.23;97354.28;4452271;32;33640;-87
2024/01/18 08:38:28;;;;;;;;;;;;;;;7.59;79.04;97355.63;4447705;32;34432;-86
2024/01/18 08:41:03;;;;;;;;;;;;;;;7.58;79.25;97359.06;4452146;32;33627;-87
2024/01/18 08:43:32;;;;;;;;;;;;;;;7.72;78.76;97365.47;4461566;32;34633;-87
2024/01/18 08:46:06;;;;;;;;;;;;;;;7.65;79.37;97357.94;4452453;32;33296;-86
2024/01/18 08:48:35;;;;;;;;;;;;;;;7.74;79.21;97369.66;4451198;32;34791;-87
2024/01/18 08:51:07;;;;;;;;;;;;;;;7.77;79.65;97373.88;4457120;32;32894;-86
2024/01/18 08:53:36;;;;;;;;;;;;;;;7.81;79.61;97373.69;4454507;32;33756;-86
2024/01/18 08:56:06;;;;;;;;;;;;;;;7.89;79.44;97375.97;4456799;32;33726;-87
2024/01/18 08:58:36;;;;;;;;;;;;;;;7.95;79.71;97383.47;4458899;32;33771;-87
2024/01/18 09:01:09;;;;;;;;;;;;;;;7.96;79.87;97377.41;4462163;32;32746;-86
2024/01/18 09:03:38;;;;;;;;;;;;;;;8.06;79.28;97389.03;4460790;32;34970;-87
2024/01/18 09:06:10;;;;;;;;;;;;;;;8.47;77.31;97396.88;4452585;32;32885;-87
2024/01/18 09:08:39;;;;;;;;;;;;;;;8.31;77.89;97399.22;4461728;32;33817;-85
2024/01/18 09:11:10;;;;;;;;;;;;;;;8.07;79.64;97390.72;4453631;32;32685;-87
2024/01/18 09:13:40;;;;;;;;;;;;;;;8.14;79.48;97396.47;4464450;32;33466;-87
2024/01/18 09:16:15;;;;;;;;;;;;;;;8.38;78.52;97399.78;4447969;32;34987;-87
2024/01/18 09:18:43;;;;;;;;;;;;;;;8.35;79.16;97397.34;4451670;32;34008;-86
2024/01/18 09:21:33;;;;;;;;;;;;;;;8.37;79.39;97392.13;4451487;32;32938;-87
2024/01/18 09:24:02;;;;;;;;;;;;;;;8.40;79.64;97387.69;4455602;32;34497;-86
2024/01/18 09:26:40;;;;;;;;;;;;;;;8.46;79.62;97391.78;4454953;32;33781;-87
2024/01/18 09:29:09;;;;;;;;;;;;;;;8.59;79.05;97390.34;4461282;32;34758;-87
2024/01/18 09:31:41;;;;;;;;;;;;;;;8.47;79.36;97391.69;4457767;32;33520;-87
2024/01/18 09:34:11;;;;;;;;;;;;;;;8.57;79.11;97392.16;4458707;32;34551;-86
2024/01/18 09:36:42;;;;;;;;;;;;;;;8.44;80.47;97404.75;4454416;32;33273;-87
2024/01/18 09:39:16;;;;;;;;;;;;;;;8.54;80.11;97403.47;4457121;32;33591;-87
2024/01/18 09:41:50;;;;;;;;;;;;;;;8.68;80.02;97395.13;4436392;32;32102;-87
2024/01/18 09:44:29;;;;;;;;;;;;;;;8.68;80.09;97395.13;4465729;32;33923;-87
2024/01/18 09:47:01;;;;;;;;;;;;;;;8.88;78.90;97381.34;4456541;32;33407;-87
2024/01/18 09:49:35;;;;;;;;;;;;;;;8.95;78.83;97390.53;4462860;32;33827;-87
2024/01/18 09:52:05;;;;;;;;;;;;;;;8.76;79.29;97382.72;4454684;32;33140;-86
2024/01/18 09:54:36;;;;;;;;;;;;;;;8.66;79.77;97372.84;4525196;26;34512;-85
2024/01/18 09:57:09;;;;;;;;;;;;;;;8.94;78.97;97386.28;4452447;32;34310;-85
2024/01/18 09:59:44;;;;;;;;;;;;;;;8.92;78.79;97398.44;4447225;32;33768;-85
2024/01/18 10:02:19;;;;;;;;;;;;;;;8.82;79.37;97397.16;4447653;32;32766;-85
2024/01/18 10:04:49;;;;;;;;;;;;;;;8.74;79.35;97391.44;4447051;32;34801;-85
2024/01/18 10:07:21;;;;;;;;;;;;;;;8.79;79.13;97381.75;4452099;32;33772;-86
2024/01/18 10:09:50;;;;;;;;;;;;;;;8.72;79.18;97370.84;4447308;32;34162;-86
2024/01/18 10:12:23;;;;;;;;;;;;;;;8.79;78.82;97373.16;4444826;32;32997;-86
2024/01/18 10:14:54;;;;;;;;;;;;;;;8.74;79.08;97370.75;4446387;32;33374;-85
2024/01/18 10:17:27;;;;;;;;;;;;;;;8.67;79.43;97367.59;4447632;32;33763;-85
2024/01/18 10:20:00;;;;;;;;;;;;;;;8.62;79.56;97360.97;4451698;32;33887;-85
2024/01/18 10:22:30;;;;;;;;;;;;;;;8.67;79.54;97365.00;4440962;32;33981;-86
2024/01/18 10:24:59;;;;;;;;;;;;;;;8.77;79.19;97365.50;4447013;32;34363;-85
2024/01/18 10:27:33;;;;;;;;;;;;;;;8.73;79.21;97362.19;4447963;32;35640;-85
2024/01/18 10:32:39;;;;;;;;;;;;;;;8.70;79.40;97364.91;4447768;32;33682;-84
2024/01/18 10:35:09;;;;;;;;;;;;;;;8.75;79.48;97365.53;4447296;32;33524;-85
2024/01/18 10:37:38;;;;;;;;;;;;;;;8.81;79.50;97364.44;4449530;32;32378;-84
2024/01/18 10:40:11;;;;;;;;;;;;;;;8.90;79.01;97355.44;4446636;32;34713;-84
2024/01/18 10:42:42;;;;;;;;;;;;;;;8.88;79.02;97371.00;4451907;32;33177;-85
2024/01/18 10:45:12;;;;;;;;;;;;;;;8.72;80.05;97360.50;4447347;32;33752;-84
2024/01/18 10:47:43;;;;;;;;;;;;;;;8.98;78.56;97356.75;4448825;32;33311;-85
2024/01/18 10:50:16;;;;;;;;;;;;;;;9.01;78.71;97353.19;4446927;32;34669;-85
2024/01/18 10:52:47;;;;;;;;;;;;;;;8.95;78.99;97353.50;4443064;32;32804;-85
2024/01/18 10:55:24;;;;;;;;;;;;;;;8.84;79.45;97335.84;4431657;32;33569;-85
2024/01/18 10:57:53;;;;;;;;;;;;;;;8.98;79.72;97343.84;4425399;32;33952;-84
2024/01/18 11:00:30;;;;;;;;;;;;;;;9.07;79.45;97341.75;4421924;32;34534;-84
2024/01/18 11:03:09;;;;;;;;;;;;;;;9.13;79.46;97344.94;4414239;32;32742;-84
2024/01/18 11:05:41;;;;;;;;;;;;;;;9.25;79.12;97351.25;4423004;32;35152;-85
2024/01/18 11:08:10;;;;;;;;;;;;;;;9.17;79.77;97338.69;4417584;32;33260;-85
2024/01/18 11:10:41;;;;;;;;;;;;;;;9.27;79.33;97330.50;4421653;32;33822;-86
2024/01/18 11:13:10;;;;;;;;;;;;;;;9.46;78.59;97333.09;4422164;32;33398;-85
2024/01/18 11:15:44;;;;;;;;;;;;;;;9.63;78.66;97334.91;4423151;32;33939;-86
2024/01/18 11:18:14;;;;;;;;;;;;;;;9.64;78.74;97341.75;4426952;32;33701;-85
2024/01/18 11:21:08;;;;;;;;;;;;;;;9.48;80.43;97333.87;4424509;32;35676;-85
2024/01/18 11:23:40;;;;;;;;;;;;;;;9.53;80.71;97329.31;4407953;32;33326;-84
2024/01/18 11:26:18;;;;;;;;;;;;;;;9.65;80.48;97339.09;4415203;32;33335;-84
2024/01/18 11:28:50;;;;;;;;;;;;;;;9.75;79.79;97331.72;4417923;32;34268;-85
2024/01/18 11:31:22;;;;;;;;;;;;;;;9.70;80.22;97338.88;4420136;32;35084;-87
2024/01/18 11:33:54;;;;;;;;;;;;;;;9.67;80.08;97331.25;4422444;32;33228;-87
2024/01/18 11:36:27;;;;;;;;;;;;;;;9.92;78.63;97333.50;4414599;32;34014;-87
2024/01/18 11:38:56;;;;;;;;;;;;;;;9.85;78.09;97325.19;4417195;32;34814;-87
2024/01/18 11:41:28;;;;;;;;;;;;;;;9.87;78.68;97307.81;4416326;32;34283;-87
2024/01/18 11:43:58;;;;;;;;;;;;;;;9.81;79.13;97311.56;4421652;32;33428;-88
2024/01/18 11:46:41;;;;;;;;;;;;;;;9.90;78.58;97322.38;4417161;32;34644;-87
2024/01/18 11:49:12;;;;;;;;;;;;;;;9.67;79.66;97318.31;4413633;32;34550;-87
2024/01/18 11:51:47;;;;;;;;;;;;;;;9.48;80.83;97315.75;4417468;32;34113;-87
2024/01/18 11:54:17;;;;;;;;;;;;;;;10.10;78.35;97309.31;4418576;32;33150;-86
2024/01/18 11:56:49;;;;;;;;;;;;;;;9.79;79.84;97309.97;4431001;32;35236;-87
2024/01/18 11:59:18;;;;;;;;;;;;;;;9.79;80.12;97307.38;4419235;32;34772;-88
2024/01/18 12:01:55;;;;;;;;;;;;;;;9.55;81.88;97299.84;4422922;32;34814;-88
2024/01/18 12:04:28;;;;;;;;;;;;;;;9.47;82.90;97295.94;4428589;32;33386;-86
2024/01/18 12:06:57;;;;;;;;;;;;;;;9.77;81.85;97304.84;4437012;32;33375;-87
2024/01/18 12:09:27;;;;;;;;;;;;;;;9.99;80.39;97301.22;4422918;32;33954;-87
2024/01/18 12:11:56;;;;;;;;;;;;;;;9.54;82.68;97305.09;4417824;32;33476;-87
2024/01/18 12:14:26;;;;;;;;;;;;;;;9.55;82.97;97304.19;4417777;32;34015;-88
2024/01/18 12:16:56;;;;;;;;;;;;;;;9.63;83.00;97309.84;4420687;32;33836;-87
2024/01/18 12:19:31;;;;;;;;;;;;;;;9.72;82.52;97313.75;4422696;32;34493;-88
2024/01/18 12:22:01;;;;;;;;;;;;;;;9.73;82.61;97310.25;4421571;32;35040;-88
2024/01/18 12:24:30;;;;;;;;;;;;;;;9.96;81.80;97302.19;4417409;32;32824;-87
2024/01/18 12:26:59;;;;;;;;;;;;;;;9.92;80.85;97299.84;4419273;32;33499;-88
2024/01/18 12:29:34;;;;;;;;;;;;;;;9.88;81.84;97308.66;4431138;32;35450;-87
2024/01/18 12:32:03;;;;;;;;;;;;;;;9.86;81.37;97310.47;4424904;32;34886;-86
2024/01/18 12:34:41;;;;;;;;;;;;;;;9.47;81.55;97307.16;4418007;32;33632;-88
2024/01/18 12:37:14;;;;;;;;;;;;;;;9.33;82.45;97302.63;4417410;32;33732;-88
2024/01/18 12:39:43;;;;;;;;;;;;;;;9.47;80.88;97307.16;4416956;32;34858;-86
2024/01/18 12:44:45;;;;;;;;;;;;;;;9.49;80.01;97320.00;4422201;32;33471;-88
2024/01/18 12:47:21;;;;;;;;;;;;;;;9.52;79.94;97318.13;4415841;32;34119;-87
2024/01/18 12:50:04;;;;;;;;;;;;;;;9.40;80.15;97310.94;4472931;26;34848;-88
2024/01/18 12:52:41;;;;;;;;;;;;;;;9.38;79.83;97311.00;4463968;32;33613;-87
2024/01/18 12:55:10;;;;;;;;;;;;;;;9.46;80.12;97308.03;4463442;32;33919;-87
2024/01/18 12:57:43;;;;;;;;;;;;;;;9.31;80.57;97309.59;4466817;32;34100;-87
2024/01/18 13:00:12;;;;;;;;;;;;;;;9.46;80.47;97302.87;4456702;32;33927;-87
2024/01/18 13:02:42;;;;;;;;;;;;;;;9.58;80.41;97304.88;4457927;32;33849;-87
2024/01/18 13:05:16;;;;;;;;;;;;;;;9.60;81.25;97300.47;4459741;32;33170;-88
2024/01/18 13:07:52;;;;;;;;;;;;;;;9.68;80.52;97304.44;4460336;32;34440;-86
2024/01/18 13:10:21;;;;;;;;;;;;;;;9.65;80.48;97308.03;4455305;32;33077;-86
2024/01/18 13:12:54;;;;;;;;;;;;;;;9.64;80.47;97301.19;4455245;32;34682;-85
2024/01/18 13:15:31;;;;;;;;;;;;;;;9.72;80.25;97313.75;4456228;32;33477;-86
2024/01/18 13:18:01;;;;;;;;;;;;;;;9.64;80.47;97321.03;4458987;32;33459;-86
2024/01/18 13:20:41;;;;;;;;;;;;;;;9.53;81.05;97321.53;4442733;32;35807;-86
2024/01/18 13:23:16;;;;;;;;;;;;;;;9.67;80.38;97320.91;4453971;32;34324;-85
2024/01/18 13:25:44;;;;;;;;;;;;;;;9.75;80.25;97334.31;4436066;32;31774;-86
2024/01/18 13:28:14;;;;;;;;;;;;;;;9.88;79.13;97331.97;4450713;32;34827;-87
2024/01/18 13:30:43;;;;;;;;;;;;;;;9.75;79.54;97332.56;4456468;32;33780;-87
2024/01/18 13:33:12;;;;;;;;;;;;;;;9.72;79.45;97326.69;4446961;32;33748;-86
2024/01/18 13:35:43;;;;;;;;;;;;;;;9.67;79.37;97332.09;4448838;32;32587;-86
2024/01/18 13:38:14;;;;;;;;;;;;;;;9.61;80.06;97334.97;4456280;32;32775;-87